ADDS METAR Data INFO
IDs: Format: Raw Decoded Include TAF

Data at: 0806 UTC 24 May 2018

K3T5 240755Z AUTO 00000KT 10SM SCT014 22/22 A3003 RMK AO2 T02190216
K3T5 240735Z AUTO 00000KT 10SM CLR 22/22 A3003 RMK AO2 T02200217
K3T5 240715Z AUTO 00000KT 10SM CLR 22/22 A3003 RMK AO2 T02220218
K3T5 240655Z AUTO 00000KT 10SM CLR 22/22 A3004 RMK AO2 T02230218
K3T5 240635Z AUTO 00000KT 10SM CLR 23/22 A3004 RMK AO2 T02260221
K3T5 240615Z AUTO 00000KT 10SM CLR 23/22 A3004 RMK AO2 T02280221
K3T5 240555Z AUTO 00000KT 10SM CLR 23/22 A3004 RMK AO2 T02300221 10290 20228 403070205
K3T5 240535Z AUTO 00000KT 10SM CLR 23/22 A3004 RMK AO2 T02280218
K3T5 240515Z AUTO 00000KT 10SM CLR 23/22 A3004 RMK AO2 T02340220
K3T5 240455Z AUTO 00000KT 10SM CLR 23/22 A3004 RMK AO2 T02340219
K3T5 240435Z AUTO 00000KT 10SM CLR 24/22 A3003 RMK AO2 T02350219
K3T5 240415Z AUTO 00000KT 10SM CLR 24/22 A3003 RMK AO2 T02400220
K3T5 240355Z AUTO 00000KT 10SM CLR 24/22 A3002 RMK AO2 T02410218
K3T5 240335Z AUTO 00000KT 10SM CLR 25/22 A3001 RMK AO2 T02450217
K3T5 240315Z AUTO 00000KT 10SM CLR 25/22 A3000 RMK AO2 T02500216
K3T5 240255Z AUTO 14004KT 10SM CLR 25/22 A3000 RMK AO2 T02530215
K3T5 240235Z AUTO 12004KT 10SM CLR 26/21 A2999 RMK AO2 T02550212
K3T5 240215Z AUTO 12004KT 10SM CLR 25/21 A2999 RMK AO2 T02540211
K3T5 240155Z AUTO 12005KT 10SM CLR 26/21 A2998 RMK AO2 T02580210
K3T5 240135Z AUTO 14003KT 10SM CLR 26/21 A2998 RMK AO2 T02610207
K3T5 240115Z AUTO 11003KT 10SM CLR 27/21 A2997 RMK AO2 T02680210
K3T5 240055Z AUTO 14004KT 10SM SCT029 28/22 A2996 RMK AO2 T02760215
K3T5 240035Z AUTO 12005KT 10SM SCT029 28/23 A2996 RMK AO2 T02830227
K3T5 240015Z AUTO 11004KT 10SM CLR 29/23 A2995 RMK AO2 T02860231
K3T5 232355Z AUTO 13005KT 10SM CLR 29/23 A2995 RMK AO2 60013 T02900231 10303 20237
K3T5 232335Z AUTO 12007KT 10SM CLR 29/23 A2995 RMK AO2 T02890225
K3T5 232315Z AUTO 11006KT 10SM CLR 29/23 A2995 RMK AO2 T02910228
K3T5 232255Z AUTO 09004KT 10SM CLR 29/22 A2997 RMK AO2 T02930224
K3T5 232235Z AUTO 12006KT 10SM CLR 29/22 A2997 RMK AO2 T02910222
K3T5 232215Z AUTO 15008KT 110V170 10SM CLR 29/22 A2998 RMK AO2 T02910217
K3T5 232155Z AUTO 15007KT 10SM CLR 29/22 A2998 RMK AO2 LTG DSNT SW T02870221
K3T5 232135Z AUTO 13007KT 100V170 10SM CLR 29/23 A2998 RMK AO2 T02880230
K3T5 232115Z AUTO 10006KT 10SM SCT110 27/23 A3000 RMK AO2 T02720225
K3T5 232055Z AUTO 10007KT 10SM SCT110 28/23 A3000 RMK AO2 60013 T02810225
K3T5 232035Z AUTO 12008G15KT 10SM CLR 26/22 A3000 RMK AO2 LTG DSNT NE T02630223
K3T5 232015Z AUTO 13008G14KT 10SM SCT039 SCT050 BKN110 25/22 A3001 RMK AO2 LTG DSNT NE T02490218
K3T5 231955Z AUTO 00000KT 10SM -RA OVC110 25/23 A3001 RMK AO2 LTG DSNT NE AND NW P0013 T02510232
K3T5 231935Z AUTO 00000KT 5SM -TSRA SCT080 OVC095 24/23 A3001 RMK AO2 LTG DSNT E AND NW P0012 T02430226
K3T5 231915Z AUTO 00000KT 4SM -TSRA SCT034 BKN070 OVC085 24/22 A3002 RMK AO2 LTG DSNT E AND NW P0009 T02390223
K3T5 231855Z AUTO 11009KT 10SM TSRA SCT030 BKN039 OVC048 27/22 A3002 RMK AO2 LTG DSNT N THRU SE T02720217
K3T5 231835Z AUTO 07006KT 10SM SCT040 BKN050 OVC070 29/23 A3001 RMK AO2 LTG DSNT E AND SE T02910232
K3T5 231815Z AUTO 12006KT 10SM -RA SCT028 BKN041 OVC070 30/22 A3001 RMK AO2 LTG DSNT E AND SE T03020218
K3T5 231755Z AUTO 09004KT 10SM SCT034 BKN041 BKN055 30/22 A3000 RMK AO2 LTG DSNT E T03010216 10307 20207
K3T5 231735Z AUTO 00000KT 10SM BKN037 BKN042 30/23 A3001 RMK AO2 LTG DSNT NE T02980226
K3T5 231715Z AUTO 00000KT 10SM SCT031 SCT041 SCT049 30/23 A3001 RMK AO2 LTG DSNT E T03030226
K3T5 231655Z AUTO 00000KT 10SM SCT031 BKN049 30/22 A3001 RMK AO2 LTG DSNT E AND SE T02980219
K3T5 231635Z AUTO 15004KT 10SM SCT027 SCT050 SCT120 30/23 A3002 RMK AO2 LTG DSNT SE T02980230
K3T5 231615Z AUTO 00000KT 10SM SCT085 BKN110 28/23 A3003 RMK AO2 T02820230
K3T5 231555Z AUTO 00000KT 10SM SCT100 BKN120 27/23 A3004 RMK AO2 T02740225
K3T5 231535Z AUTO 13005KT 10SM SCT019 SCT026 BKN090 28/23 A3004 RMK AO2 T02770232
K3T5 231515Z AUTO 14003KT 10SM BKN019 BKN026 BKN060 28/24 A3003 RMK AO2 LTG DSNT E T02810238
K3T5 231455Z AUTO 00000KT 10SM BKN017 BKN027 OVC034 28/24 A3003 RMK AO2 T02790243
K3T5 231435Z AUTO 14003KT 10SM SCT012 SCT019 BKN026 27/24 A3003 RMK AO2 T02710243
K3T5 231415Z AUTO 00000KT 10SM SCT010 SCT017 27/25 A3003 RMK AO2 T02650245
K3T5 231355Z AUTO 00000KT 10SM SCT008 SCT015 SCT025 26/25 A3003 RMK AO2 T02590245
K3T5 231335Z AUTO 00000KT 10SM -RA SCT010 OVC015 25/24 A3002 RMK AO2 T02480241
K3T5 231315Z AUTO 00000KT 10SM SCT010 BKN015 24/23 A3001 RMK AO2 T02390234
K3T5 231255Z AUTO 00000KT 10SM CLR 23/23 A3001 RMK AO2 LTG DSNT SE T02340231
K3T5 231235Z AUTO 00000KT 7SM CLR 22/22 A3000 RMK AO2 T02230221
K3T5 231215Z AUTO 00000KT 10SM CLR 22/22 A2999 RMK AO2 T02150215
K3T5 231155Z AUTO 00000KT 10SM CLR 21/21 A2998 RMK AO2 70080 T02060205 10233 20205
K3T5 231135Z AUTO 00000KT 5SM BR CLR 21/21 A2997 RMK AO2 T02070206
K3T5 231115Z AUTO 00000KT 7SM CLR 21/21 A2997 RMK AO2 T02070205
K3T5 231055Z AUTO 00000KT 10SM CLR 21/21 A2996 RMK AO2 T02060205
K3T5 231035Z AUTO 00000KT 10SM CLR 21/21 A2996 RMK AO2 T02070205
K3T5 231015Z AUTO 00000KT 7SM CLR 21/21 A2996 RMK AO2 T02090207
K3T5 230955Z AUTO 00000KT 7SM CLR 21/21 A2996 RMK AO2 T02110209
K3T5 230935Z AUTO 00000KT 10SM CLR 21/21 A2996 RMK AO2 T02100207
K3T5 230915Z AUTO 00000KT 10SM CLR 21/21 A2996 RMK AO2 T02100207
K3T5 230855Z AUTO 00000KT 10SM CLR 22/21 A2996 RMK AO2 T02160213
K3T5 230835Z AUTO 00000KT 10SM CLR 22/21 A2996 RMK AO2 T02160213
K3T5 230815Z AUTO 00000KT 10SM CLR 22/21 A2996 RMK AO2 T02180214
K3T5 230755Z AUTO 00000KT 10SM CLR 22/22 A2997 RMK AO2 T02200215
K3T5 230735Z AUTO 00000KT 10SM CLR 22/22 A2997 RMK AO2 T02220216
K3T5 230715Z AUTO 00000KT 10SM CLR 22/22 A2997 RMK AO2 T02220216
K3T5 230655Z AUTO 00000KT 10SM CLR 23/22 A2998 RMK AO2 T02250216
K3T5 230635Z AUTO 00000KT 10SM CLR 23/22 A2998 RMK AO2 T02290217
K3T5 230615Z AUTO 00000KT 10SM CLR 23/22 A2998 RMK AO2 T02310217
K3T5 230555Z AUTO 00000KT 10SM CLR 23/22 A2998 RMK AO2 T02330219 10300 20233 403110198
K3T5 230535Z AUTO 11003KT 10SM CLR 24/22 A2997 RMK AO2 T02350220
K3T5 230515Z AUTO 13003KT 10SM CLR 24/22 A2998 RMK AO2 T02360221
K3T5 230455Z AUTO 00000KT 10SM CLR 24/22 A2998 RMK AO2 T02400220
K3T5 230435Z AUTO 14003KT 10SM CLR 24/22 A2998 RMK AO2 T02410221
K3T5 230415Z AUTO 00000KT 10SM CLR 24/22 A2998 RMK AO2 T02410220
K3T5 230355Z AUTO 00000KT 10SM CLR 24/22 A2997 RMK AO2 T02430220
K3T5 230335Z AUTO 00000KT 10SM CLR 25/22 A2997 RMK AO2 T02450220
K3T5 230315Z AUTO 00000KT 10SM CLR 25/22 A2996 RMK AO2 T02480220
K3T5 230255Z AUTO 00000KT 10SM CLR 24/22 A2996 RMK AO2 T02410221
K3T5 230235Z AUTO 00000KT 10SM CLR 25/22 A2995 RMK AO2 T02520218
K3T5 230215Z AUTO 00000KT 10SM CLR 26/22 A2994 RMK AO2 T02560220
K3T5 230155Z AUTO 00000KT 10SM CLR 26/22 A2993 RMK AO2 T02580220
K3T5 230135Z AUTO 00000KT 10SM CLR 27/22 A2993 RMK AO2 T02690218
K3T5 230115Z AUTO 00000KT 10SM CLR 28/22 A2992 RMK AO2 T02750217
K3T5 230055Z AUTO 16003KT 10SM CLR 28/21 A2991 RMK AO2 T02820214
K3T5 230035Z AUTO 15004KT 10SM CLR 29/21 A2991 RMK AO2 T02890209
K3T5 230015Z AUTO 15006KT 10SM CLR 29/21 A2990 RMK AO2 T02940211
K3T5 222355Z AUTO 16008KT 10SM CLR 30/20 A2990 RMK AO2 60002 T03000204 10311 20216
K3T5 222335Z AUTO 14005KT 10SM CLR 30/20 A2990 RMK AO2 T03040197
K3T5 222315Z AUTO 16005KT 10SM CLR 31/20 A2990 RMK AO2 LTG DSNT NE T03060202
K3T5 222255Z AUTO 15007KT 10SM CLR 31/20 A2990 RMK AO2 T03060203
K3T5 222235Z AUTO 19005KT 10SM CLR 31/21 A2990 RMK AO2 LTG DSNT NE T03050207
K3T5 222215Z AUTO 17006KT 10SM CLR 31/20 A2991 RMK AO2 T03080198
K3T5 222155Z AUTO 15007KT 10SM CLR 31/20 A2991 RMK AO2 T03090195
K3T5 222135Z AUTO 15006KT 10SM CLR 31/21 A2991 RMK AO2 T03080213
K3T5 222115Z AUTO 14005KT 10SM CLR 31/21 A2993 RMK AO2 T03060212